sensor_id;sensor_type;location;lat;lon;timestamp;P1;durP1;ratioP1;P2;durP2;ratioP2
64957;SDS011;51486;50.232;19.208;2024-03-06T00:01:47;43.53;;;15.77;;
64957;SDS011;51486;50.232;19.208;2024-03-06T00:04:12;37.97;;;15.00;;
64957;SDS011;51486;50.232;19.208;2024-03-06T00:06:38;33.97;;;13.40;;
64957;SDS011;51486;50.232;19.208;2024-03-06T00:09:03;39.33;;;16.73;;
64957;SDS011;51486;50.232;19.208;2024-03-06T00:11:29;40.53;;;16.53;;
64957;SDS011;51486;50.232;19.208;2024-03-06T00:13:55;32.20;;;14.83;;
64957;SDS011;51486;50.232;19.208;2024-03-06T00:16:20;36.63;;;14.80;;
64957;SDS011;51486;50.232;19.208;2024-03-06T00:18:46;35.17;;;12.67;;
64957;SDS011;51486;50.232;19.208;2024-03-06T00:21:11;37.37;;;13.80;;
64957;SDS011;51486;50.232;19.208;2024-03-06T00:23:37;55.73;;;15.60;;
64957;SDS011;51486;50.232;19.208;2024-03-06T00:26:03;37.20;;;12.57;;
64957;SDS011;51486;50.232;19.208;2024-03-06T00:28:29;35.93;;;13.57;;
64957;SDS011;51486;50.232;19.208;2024-03-06T00:30:54;39.00;;;13.47;;
64957;SDS011;51486;50.232;19.208;2024-03-06T00:33:20;29.80;;;12.97;;
64957;SDS011;51486;50.232;19.208;2024-03-06T00:35:46;30.17;;;13.07;;
64957;SDS011;51486;50.232;19.208;2024-03-06T00:38:11;47.50;;;13.40;;
64957;SDS011;51486;50.232;19.208;2024-03-06T00:40:38;53.40;;;15.17;;
64957;SDS011;51486;50.232;19.208;2024-03-06T00:43:03;41.90;;;14.63;;
64957;SDS011;51486;50.232;19.208;2024-03-06T00:45:29;53.47;;;14.40;;
64957;SDS011;51486;50.232;19.208;2024-03-06T00:47:55;47.63;;;14.10;;
64957;SDS011;51486;50.232;19.208;2024-03-06T00:50:20;44.33;;;13.00;;
64957;SDS011;51486;50.232;19.208;2024-03-06T00:52:47;44.53;;;13.77;;
64957;SDS011;51486;50.232;19.208;2024-03-06T00:55:13;31.07;;;14.03;;
64957;SDS011;51486;50.232;19.208;2024-03-06T00:57:39;33.07;;;13.77;;
64957;SDS011;51486;50.232;19.208;2024-03-06T01:00:05;35.50;;;13.40;;
64957;SDS011;51486;50.232;19.208;2024-03-06T01:02:38;42.90;;;13.97;;
64957;SDS011;51486;50.232;19.208;2024-03-06T01:05:03;31.57;;;13.13;;
64957;SDS011;51486;50.232;19.208;2024-03-06T01:07:30;42.73;;;14.47;;
64957;SDS011;51486;50.232;19.208;2024-03-06T01:09:56;31.13;;;13.20;;
64957;SDS011;51486;50.232;19.208;2024-03-06T01:12:22;35.77;;;14.50;;
64957;SDS011;51486;50.232;19.208;2024-03-06T01:14:48;42.93;;;14.97;;
64957;SDS011;51486;50.232;19.208;2024-03-06T01:17:14;37.00;;;14.77;;
64957;SDS011;51486;50.232;19.208;2024-03-06T01:19:39;38.50;;;13.73;;
64957;SDS011;51486;50.232;19.208;2024-03-06T01:22:05;35.63;;;15.47;;
64957;SDS011;51486;50.232;19.208;2024-03-06T01:24:30;42.23;;;13.33;;
64957;SDS011;51486;50.232;19.208;2024-03-06T01:26:56;40.47;;;14.03;;
64957;SDS011;51486;50.232;19.208;2024-03-06T01:29:21;44.20;;;13.47;;
64957;SDS011;51486;50.232;19.208;2024-03-06T01:31:47;40.53;;;14.13;;
64957;SDS011;51486;50.232;19.208;2024-03-06T01:34:12;34.10;;;13.30;;
64957;SDS011;51486;50.232;19.208;2024-03-06T01:36:37;48.23;;;14.37;;
64957;SDS011;51486;50.232;19.208;2024-03-06T01:39:03;28.27;;;12.43;;
64957;SDS011;51486;50.232;19.208;2024-03-06T01:41:28;37.50;;;13.70;;
64957;SDS011;51486;50.232;19.208;2024-03-06T01:43:54;34.63;;;13.40;;
64957;SDS011;51486;50.232;19.208;2024-03-06T01:46:19;35.10;;;12.93;;
64957;SDS011;51486;50.232;19.208;2024-03-06T01:48:45;32.73;;;12.77;;
64957;SDS011;51486;50.232;19.208;2024-03-06T01:51:11;40.53;;;13.90;;
64957;SDS011;51486;50.232;19.208;2024-03-06T01:53:37;45.40;;;14.67;;
64957;SDS011;51486;50.232;19.208;2024-03-06T01:56:03;42.67;;;15.07;;
64957;SDS011;51486;50.232;19.208;2024-03-06T01:58:30;44.37;;;16.17;;
64957;SDS011;51486;50.232;19.208;2024-03-06T02:00:58;51.77;;;15.17;;
64957;SDS011;51486;50.232;19.208;2024-03-06T02:03:24;44.70;;;16.40;;
64957;SDS011;51486;50.232;19.208;2024-03-06T02:05:51;43.70;;;16.30;;
64957;SDS011;51486;50.232;19.208;2024-03-06T02:08:17;44.97;;;17.47;;
64957;SDS011;51486;50.232;19.208;2024-03-06T02:10:46;42.03;;;16.93;;
64957;SDS011;51486;50.232;19.208;2024-03-06T02:13:12;46.07;;;17.63;;
64957;SDS011;51486;50.232;19.208;2024-03-06T02:15:38;43.27;;;18.23;;
64957;SDS011;51486;50.232;19.208;2024-03-06T02:18:04;56.97;;;18.10;;
64957;SDS011;51486;50.232;19.208;2024-03-06T02:20:31;52.03;;;17.73;;
64957;SDS011;51486;50.232;19.208;2024-03-06T02:22:56;43.93;;;16.97;;
64957;SDS011;51486;50.232;19.208;2024-03-06T02:25:22;58.47;;;19.63;;
64957;SDS011;51486;50.232;19.208;2024-03-06T02:27:47;49.90;;;19.07;;
64957;SDS011;51486;50.232;19.208;2024-03-06T02:30:19;49.40;;;18.67;;
64957;SDS011;51486;50.232;19.208;2024-03-06T02:32:45;53.20;;;17.57;;
64957;SDS011;51486;50.232;19.208;2024-03-06T02:35:11;54.20;;;19.20;;
64957;SDS011;51486;50.232;19.208;2024-03-06T02:37:37;48.13;;;18.90;;
64957;SDS011;51486;50.232;19.208;2024-03-06T02:40:03;56.50;;;18.80;;
64957;SDS011;51486;50.232;19.208;2024-03-06T02:42:32;55.23;;;19.97;;
64957;SDS011;51486;50.232;19.208;2024-03-06T02:44:58;52.87;;;19.30;;
64957;SDS011;51486;50.232;19.208;2024-03-06T02:47:23;50.40;;;17.77;;
64957;SDS011;51486;50.232;19.208;2024-03-06T02:49:49;52.50;;;19.03;;
64957;SDS011;51486;50.232;19.208;2024-03-06T02:52:14;46.87;;;17.87;;
64957;SDS011;51486;50.232;19.208;2024-03-06T02:54:40;54.70;;;16.97;;
64957;SDS011;51486;50.232;19.208;2024-03-06T02:57:07;45.70;;;17.57;;
64957;SDS011;51486;50.232;19.208;2024-03-06T02:59:33;43.43;;;18.27;;
64957;SDS011;51486;50.232;19.208;2024-03-06T03:01:58;48.57;;;17.37;;
64957;SDS011;51486;50.232;19.208;2024-03-06T03:04:24;50.17;;;17.63;;
64957;SDS011;51486;50.232;19.208;2024-03-06T03:06:51;44.83;;;18.40;;
64957;SDS011;51486;50.232;19.208;2024-03-06T03:09:16;47.17;;;16.43;;
64957;SDS011;51486;50.232;19.208;2024-03-06T03:11:42;38.33;;;17.70;;
64957;SDS011;51486;50.232;19.208;2024-03-06T03:14:09;53.40;;;16.03;;
64957;SDS011;51486;50.232;19.208;2024-03-06T03:16:34;60.20;;;17.90;;
64957;SDS011;51486;50.232;19.208;2024-03-06T03:19:00;45.87;;;16.67;;
64957;SDS011;51486;50.232;19.208;2024-03-06T03:21:26;52.90;;;17.50;;
64957;SDS011;51486;50.232;19.208;2024-03-06T03:23:52;42.90;;;17.23;;
64957;SDS011;51486;50.232;19.208;2024-03-06T03:26:17;41.07;;;16.17;;
64957;SDS011;51486;50.232;19.208;2024-03-06T03:28:43;48.87;;;16.70;;
64957;SDS011;51486;50.232;19.208;2024-03-06T03:31:08;58.03;;;17.77;;
64957;SDS011;51486;50.232;19.208;2024-03-06T03:33:35;44.80;;;16.77;;
64957;SDS011;51486;50.232;19.208;2024-03-06T03:36:05;49.13;;;17.10;;
64957;SDS011;51486;50.232;19.208;2024-03-06T03:38:32;54.37;;;17.37;;
64957;SDS011;51486;50.232;19.208;2024-03-06T03:40:58;34.17;;;13.43;;
64957;SDS011;51486;50.232;19.208;2024-03-06T03:43:23;61.93;;;16.03;;
64957;SDS011;51486;50.232;19.208;2024-03-06T03:45:49;37.83;;;14.90;;
64957;SDS011;51486;50.232;19.208;2024-03-06T03:48:14;46.00;;;16.00;;
64957;SDS011;51486;50.232;19.208;2024-03-06T03:50:40;39.40;;;15.80;;
64957;SDS011;51486;50.232;19.208;2024-03-06T03:53:05;35.90;;;14.87;;
64957;SDS011;51486;50.232;19.208;2024-03-06T03:55:30;37.67;;;15.70;;
64957;SDS011;51486;50.232;19.208;2024-03-06T03:57:56;47.37;;;17.27;;
64957;SDS011;51486;50.232;19.208;2024-03-06T04:00:21;42.50;;;14.73;;
64957;SDS011;51486;50.232;19.208;2024-03-06T04:02:48;46.70;;;16.23;;
64957;SDS011;51486;50.232;19.208;2024-03-06T04:05:13;38.27;;;15.80;;
64957;SDS011;51486;50.232;19.208;2024-03-06T04:07:39;39.70;;;15.03;;
64957;SDS011;51486;50.232;19.208;2024-03-06T04:10:05;45.67;;;17.73;;
64957;SDS011;51486;50.232;19.208;2024-03-06T04:12:31;50.00;;;15.43;;
64957;SDS011;51486;50.232;19.208;2024-03-06T04:14:57;41.03;;;14.83;;
64957;SDS011;51486;50.232;19.208;2024-03-06T04:17:22;53.03;;;15.63;;
64957;SDS011;51486;50.232;19.208;2024-03-06T04:19:48;35.27;;;14.50;;
64957;SDS011;51486;50.232;19.208;2024-03-06T04:22:14;49.40;;;15.93;;
64957;SDS011;51486;50.232;19.208;2024-03-06T04:24:43;46.17;;;16.27;;
64957;SDS011;51486;50.232;19.208;2024-03-06T04:27:08;42.10;;;16.53;;
64957;SDS011;51486;50.232;19.208;2024-03-06T04:29:34;37.77;;;14.73;;
64957;SDS011;51486;50.232;19.208;2024-03-06T04:31:59;35.83;;;14.87;;
64957;SDS011;51486;50.232;19.208;2024-03-06T04:34:24;44.10;;;15.33;;
64957;SDS011;51486;50.232;19.208;2024-03-06T04:36:50;44.37;;;16.60;;
64957;SDS011;51486;50.232;19.208;2024-03-06T04:39:15;47.83;;;15.50;;
64957;SDS011;51486;50.232;19.208;2024-03-06T04:41:41;38.47;;;15.27;;
64957;SDS011;51486;50.232;19.208;2024-03-06T04:44:07;46.83;;;14.73;;
64957;SDS011;51486;50.232;19.208;2024-03-06T04:46:32;58.87;;;16.90;;
64957;SDS011;51486;50.232;19.208;2024-03-06T04:48:58;49.70;;;16.80;;
64957;SDS011;51486;50.232;19.208;2024-03-06T04:51:23;37.67;;;15.20;;
64957;SDS011;51486;50.232;19.208;2024-03-06T04:53:49;52.93;;;17.50;;
64957;SDS011;51486;50.232;19.208;2024-03-06T04:56:14;38.37;;;15.10;;
64957;SDS011;51486;50.232;19.208;2024-03-06T04:58:43;54.70;;;18.87;;
64957;SDS011;51486;50.232;19.208;2024-03-06T05:01:09;48.17;;;16.37;;
64957;SDS011;51486;50.232;19.208;2024-03-06T05:03:35;46.27;;;15.10;;
64957;SDS011;51486;50.232;19.208;2024-03-06T05:06:00;45.13;;;16.73;;
64957;SDS011;51486;50.232;19.208;2024-03-06T05:08:26;35.80;;;14.73;;
64957;SDS011;51486;50.232;19.208;2024-03-06T05:10:52;37.07;;;16.60;;
64957;SDS011;51486;50.232;19.208;2024-03-06T05:13:17;52.83;;;18.07;;
64957;SDS011;51486;50.232;19.208;2024-03-06T05:15:42;58.50;;;18.43;;
64957;SDS011;51486;50.232;19.208;2024-03-06T05:18:08;63.33;;;16.30;;
64957;SDS011;51486;50.232;19.208;2024-03-06T05:20:34;47.30;;;17.97;;
64957;SDS011;51486;50.232;19.208;2024-03-06T05:23:00;47.90;;;17.07;;
64957;SDS011;51486;50.232;19.208;2024-03-06T05:25:25;45.80;;;16.27;;
64957;SDS011;51486;50.232;19.208;2024-03-06T05:27:50;53.87;;;17.93;;
64957;SDS011;51486;50.232;19.208;2024-03-06T05:30:16;52.77;;;19.03;;
64957;SDS011;51486;50.232;19.208;2024-03-06T05:32:41;65.53;;;17.33;;
64957;SDS011;51486;50.232;19.208;2024-03-06T05:35:07;49.40;;;17.53;;
64957;SDS011;51486;50.232;19.208;2024-03-06T05:37:36;50.20;;;17.43;;
64957;SDS011;51486;50.232;19.208;2024-03-06T05:40:02;45.30;;;16.17;;
64957;SDS011;51486;50.232;19.208;2024-03-06T05:42:30;43.13;;;16.90;;
64957;SDS011;51486;50.232;19.208;2024-03-06T05:44:56;48.03;;;17.30;;
64957;SDS011;51486;50.232;19.208;2024-03-06T05:47:25;48.73;;;17.57;;
64957;SDS011;51486;50.232;19.208;2024-03-06T05:49:51;49.03;;;17.70;;
64957;SDS011;51486;50.232;19.208;2024-03-06T05:52:16;61.70;;;17.80;;
64957;SDS011;51486;50.232;19.208;2024-03-06T05:54:42;45.87;;;17.03;;
64957;SDS011;51486;50.232;19.208;2024-03-06T05:57:07;44.90;;;17.00;;
64957;SDS011;51486;50.232;19.208;2024-03-06T05:59:33;45.83;;;15.27;;
64957;SDS011;51486;50.232;19.208;2024-03-06T06:01:58;56.70;;;16.83;;
64957;SDS011;51486;50.232;19.208;2024-03-06T06:04:23;38.87;;;14.37;;
64957;SDS011;51486;50.232;19.208;2024-03-06T06:06:49;45.73;;;16.07;;
64957;SDS011;51486;50.232;19.208;2024-03-06T06:09:14;39.73;;;14.30;;
64957;SDS011;51486;50.232;19.208;2024-03-06T06:11:43;53.93;;;16.53;;
64957;SDS011;51486;50.232;19.208;2024-03-06T06:14:09;48.43;;;16.77;;
64957;SDS011;51486;50.232;19.208;2024-03-06T06:16:38;39.80;;;14.53;;
64957;SDS011;51486;50.232;19.208;2024-03-06T06:19:05;41.43;;;15.47;;
64957;SDS011;51486;50.232;19.208;2024-03-06T06:21:31;45.57;;;14.23;;
64957;SDS011;51486;50.232;19.208;2024-03-06T06:23:57;40.43;;;13.97;;
64957;SDS011;51486;50.232;19.208;2024-03-06T06:26:23;37.63;;;13.00;;
64957;SDS011;51486;50.232;19.208;2024-03-06T06:28:49;34.77;;;14.23;;
64957;SDS011;51486;50.232;19.208;2024-03-06T06:31:14;50.13;;;15.63;;
64957;SDS011;51486;50.232;19.208;2024-03-06T06:33:40;51.93;;;15.00;;
64957;SDS011;51486;50.232;19.208;2024-03-06T06:36:06;39.37;;;14.77;;
64957;SDS011;51486;50.232;19.208;2024-03-06T06:38:31;47.50;;;16.03;;
64957;SDS011;51486;50.232;19.208;2024-03-06T06:40:57;43.03;;;16.33;;
64957;SDS011;51486;50.232;19.208;2024-03-06T06:43:23;42.00;;;16.00;;
64957;SDS011;51486;50.232;19.208;2024-03-06T06:45:49;46.17;;;17.33;;
64957;SDS011;51486;50.232;19.208;2024-03-06T06:48:15;49.17;;;16.57;;
64957;SDS011;51486;50.232;19.208;2024-03-06T06:50:41;45.87;;;16.37;;
64957;SDS011;51486;50.232;19.208;2024-03-06T06:53:06;43.27;;;16.40;;
64957;SDS011;51486;50.232;19.208;2024-03-06T06:55:32;40.47;;;14.57;;
64957;SDS011;51486;50.232;19.208;2024-03-06T06:57:57;48.70;;;16.97;;
64957;SDS011;51486;50.232;19.208;2024-03-06T07:00:23;42.13;;;15.73;;
64957;SDS011;51486;50.232;19.208;2024-03-06T07:02:49;51.40;;;18.30;;
64957;SDS011;51486;50.232;19.208;2024-03-06T07:05:15;34.77;;;14.60;;
64957;SDS011;51486;50.232;19.208;2024-03-06T07:07:41;41.83;;;16.73;;
64957;SDS011;51486;50.232;19.208;2024-03-06T07:10:07;45.80;;;15.90;;
64957;SDS011;51486;50.232;19.208;2024-03-06T07:12:33;42.20;;;15.70;;
64957;SDS011;51486;50.232;19.208;2024-03-06T07:14:59;49.37;;;17.10;;
64957;SDS011;51486;50.232;19.208;2024-03-06T07:17:24;56.10;;;18.20;;
64957;SDS011;51486;50.232;19.208;2024-03-06T07:19:50;58.13;;;18.40;;
64957;SDS011;51486;50.232;19.208;2024-03-06T07:22:17;50.27;;;18.13;;
64957;SDS011;51486;50.232;19.208;2024-03-06T07:24:42;47.07;;;16.53;;
64957;SDS011;51486;50.232;19.208;2024-03-06T07:27:08;59.13;;;17.67;;
64957;SDS011;51486;50.232;19.208;2024-03-06T07:29:34;47.93;;;17.67;;
64957;SDS011;51486;50.232;19.208;2024-03-06T07:32:00;42.90;;;16.30;;
64957;SDS011;51486;50.232;19.208;2024-03-06T07:34:26;51.20;;;18.17;;
64957;SDS011;51486;50.232;19.208;2024-03-06T07:36:52;42.40;;;16.63;;
64957;SDS011;51486;50.232;19.208;2024-03-06T07:39:21;44.10;;;17.17;;
64957;SDS011;51486;50.232;19.208;2024-03-06T07:41:47;43.63;;;18.70;;
64957;SDS011;51486;50.232;19.208;2024-03-06T07:44:12;34.60;;;15.70;;
64957;SDS011;51486;50.232;19.208;2024-03-06T07:46:38;49.73;;;18.23;;
64957;SDS011;51486;50.232;19.208;2024-03-06T07:49:04;42.87;;;17.13;;
64957;SDS011;51486;50.232;19.208;2024-03-06T07:51:30;41.73;;;16.73;;
64957;SDS011;51486;50.232;19.208;2024-03-06T07:53:56;38.70;;;15.13;;
64957;SDS011;51486;50.232;19.208;2024-03-06T07:56:22;40.53;;;17.47;;
64957;SDS011;51486;50.232;19.208;2024-03-06T07:58:48;31.73;;;13.93;;
64957;SDS011;51486;50.232;19.208;2024-03-06T08:01:14;41.17;;;14.93;;
64957;SDS011;51486;50.232;19.208;2024-03-06T08:03:40;30.33;;;14.37;;
64957;SDS011;51486;50.232;19.208;2024-03-06T08:06:06;35.60;;;13.80;;
64957;SDS011;51486;50.232;19.208;2024-03-06T08:08:31;27.40;;;12.83;;
64957;SDS011;51486;50.232;19.208;2024-03-06T08:10:57;37.37;;;13.90;;
64957;SDS011;51486;50.232;19.208;2024-03-06T08:13:22;33.57;;;13.53;;
64957;SDS011;51486;50.232;19.208;2024-03-06T08:15:48;31.90;;;12.30;;
64957;SDS011;51486;50.232;19.208;2024-03-06T08:18:13;35.37;;;15.17;;
64957;SDS011;51486;50.232;19.208;2024-03-06T08:20:40;31.67;;;11.53;;
64957;SDS011;51486;50.232;19.208;2024-03-06T08:23:06;32.93;;;13.87;;
64957;SDS011;51486;50.232;19.208;2024-03-06T08:25:32;27.17;;;12.83;;
64957;SDS011;51486;50.232;19.208;2024-03-06T08:27:58;27.37;;;12.10;;
64957;SDS011;51486;50.232;19.208;2024-03-06T08:30:24;30.73;;;12.27;;
64957;SDS011;51486;50.232;19.208;2024-03-06T08:32:50;23.80;;;10.87;;
64957;SDS011;51486;50.232;19.208;2024-03-06T08:35:16;23.97;;;10.67;;
64957;SDS011;51486;50.232;19.208;2024-03-06T08:37:43;27.33;;;11.50;;
64957;SDS011;51486;50.232;19.208;2024-03-06T08:40:10;27.63;;;11.90;;
64957;SDS011;51486;50.232;19.208;2024-03-06T08:42:40;25.17;;;11.13;;
64957;SDS011;51486;50.232;19.208;2024-03-06T08:45:06;27.37;;;13.27;;
64957;SDS011;51486;50.232;19.208;2024-03-06T08:47:33;24.97;;;10.77;;
64957;SDS011;51486;50.232;19.208;2024-03-06T08:49:59;26.37;;;11.80;;
64957;SDS011;51486;50.232;19.208;2024-03-06T08:52:24;33.17;;;12.00;;
64957;SDS011;51486;50.232;19.208;2024-03-06T08:54:49;25.37;;;10.37;;
64957;SDS011;51486;50.232;19.208;2024-03-06T08:57:15;22.23;;;9.70;;
64957;SDS011;51486;50.232;19.208;2024-03-06T08:59:41;19.77;;;10.00;;
64957;SDS011;51486;50.232;19.208;2024-03-06T09:02:14;20.23;;;9.50;;
64957;SDS011;51486;50.232;19.208;2024-03-06T09:04:41;24.20;;;10.70;;
64957;SDS011;51486;50.232;19.208;2024-03-06T09:07:07;15.73;;;8.23;;
64957;SDS011;51486;50.232;19.208;2024-03-06T09:09:34;23.47;;;9.50;;
64957;SDS011;51486;50.232;19.208;2024-03-06T09:12:00;21.87;;;9.23;;
64957;SDS011;51486;50.232;19.208;2024-03-06T09:14:26;21.13;;;9.90;;
64957;SDS011;51486;50.232;19.208;2024-03-06T09:16:51;22.30;;;10.13;;
64957;SDS011;51486;50.232;19.208;2024-03-06T09:19:17;28.07;;;9.20;;
64957;SDS011;51486;50.232;19.208;2024-03-06T09:21:42;22.83;;;8.57;;
64957;SDS011;51486;50.232;19.208;2024-03-06T09:24:08;16.37;;;8.07;;
64957;SDS011;51486;50.232;19.208;2024-03-06T09:26:33;21.07;;;9.40;;
64957;SDS011;51486;50.232;19.208;2024-03-06T09:28:59;19.13;;;8.33;;
64957;SDS011;51486;50.232;19.208;2024-03-06T09:31:26;20.77;;;9.50;;
64957;SDS011;51486;50.232;19.208;2024-03-06T09:33:52;22.10;;;9.10;;
64957;SDS011;51486;50.232;19.208;2024-03-06T09:36:18;22.50;;;9.53;;
64957;SDS011;51486;50.232;19.208;2024-03-06T09:38:44;23.30;;;10.17;;
64957;SDS011;51486;50.232;19.208;2024-03-06T09:41:09;29.03;;;9.80;;
64957;SDS011;51486;50.232;19.208;2024-03-06T09:43:35;29.50;;;10.50;;
64957;SDS011;51486;50.232;19.208;2024-03-06T09:46:00;21.27;;;9.80;;
64957;SDS011;51486;50.232;19.208;2024-03-06T09:48:27;17.80;;;8.47;;
64957;SDS011;51486;50.232;19.208;2024-03-06T09:50:54;21.13;;;10.23;;
64957;SDS011;51486;50.232;19.208;2024-03-06T09:53:28;23.70;;;11.37;;
64957;SDS011;51486;50.232;19.208;2024-03-06T09:55:57;23.50;;;10.77;;
64957;SDS011;51486;50.232;19.208;2024-03-06T09:58:23;22.80;;;10.73;;
64957;SDS011;51486;50.232;19.208;2024-03-06T10:00:51;16.40;;;7.60;;
64957;SDS011;51486;50.232;19.208;2024-03-06T10:03:19;22.13;;;9.17;;
64957;SDS011;51486;50.232;19.208;2024-03-06T10:05:45;22.83;;;9.43;;
64957;SDS011;51486;50.232;19.208;2024-03-06T10:08:11;21.43;;;10.83;;
64957;SDS011;51486;50.232;19.208;2024-03-06T10:10:36;22.27;;;8.97;;
64957;SDS011;51486;50.232;19.208;2024-03-06T10:13:02;21.70;;;9.23;;
64957;SDS011;51486;50.232;19.208;2024-03-06T10:15:28;20.03;;;9.17;;
64957;SDS011;51486;50.232;19.208;2024-03-06T10:20:38;28.10;;;10.77;;
64957;SDS011;51486;50.232;19.208;2024-03-06T10:23:04;20.20;;;9.93;;
64957;SDS011;51486;50.232;19.208;2024-03-06T10:25:29;22.30;;;9.20;;
64957;SDS011;51486;50.232;19.208;2024-03-06T10:28:05;29.40;;;11.57;;
64957;SDS011;51486;50.232;19.208;2024-03-06T10:30:35;20.00;;;10.53;;
64957;SDS011;51486;50.232;19.208;2024-03-06T10:33:05;24.63;;;11.07;;
64957;SDS011;51486;50.232;19.208;2024-03-06T10:35:33;22.53;;;10.27;;
64957;SDS011;51486;50.232;19.208;2024-03-06T10:38:03;25.33;;;11.10;;
64957;SDS011;51486;50.232;19.208;2024-03-06T10:40:36;19.07;;;9.77;;
64957;SDS011;51486;50.232;19.208;2024-03-06T10:43:03;24.50;;;10.70;;
64957;SDS011;51486;50.232;19.208;2024-03-06T10:48:07;27.47;;;11.23;;
64957;SDS011;51486;50.232;19.208;2024-03-06T10:50:34;27.27;;;11.70;;
64957;SDS011;51486;50.232;19.208;2024-03-06T10:53:00;25.10;;;11.20;;
64957;SDS011;51486;50.232;19.208;2024-03-06T10:55:27;32.07;;;12.20;;
64957;SDS011;51486;50.232;19.208;2024-03-06T10:57:54;27.57;;;12.53;;
64957;SDS011;51486;50.232;19.208;2024-03-06T11:00:22;25.23;;;11.27;;
64957;SDS011;51486;50.232;19.208;2024-03-06T11:02:49;25.20;;;11.20;;
64957;SDS011;51486;50.232;19.208;2024-03-06T11:05:18;27.97;;;12.07;;
64957;SDS011;51486;50.232;19.208;2024-03-06T11:07:43;23.73;;;10.53;;
64957;SDS011;51486;50.232;19.208;2024-03-06T11:10:09;25.77;;;11.23;;
64957;SDS011;51486;50.232;19.208;2024-03-06T11:12:41;27.03;;;12.57;;
64957;SDS011;51486;50.232;19.208;2024-03-06T11:15:10;34.57;;;11.30;;
64957;SDS011;51486;50.232;19.208;2024-03-06T11:17:44;24.63;;;11.47;;
64957;SDS011;51486;50.232;19.208;2024-03-06T11:20:16;31.07;;;12.77;;
64957;SDS011;51486;50.232;19.208;2024-03-06T11:28:28;29.83;;;11.80;;
64957;SDS011;51486;50.232;19.208;2024-03-06T11:31:04;26.33;;;11.80;;
64957;SDS011;51486;50.232;19.208;2024-03-06T11:41:21;36.20;;;12.97;;
64957;SDS011;51486;50.232;19.208;2024-03-06T11:43:48;33.27;;;11.37;;
64957;SDS011;51486;50.232;19.208;2024-03-06T11:46:16;27.17;;;11.23;;
64957;SDS011;51486;50.232;19.208;2024-03-06T11:48:42;24.30;;;11.30;;
64957;SDS011;51486;50.232;19.208;2024-03-06T11:51:08;31.70;;;12.67;;
64957;SDS011;51486;50.232;19.208;2024-03-06T11:53:34;24.77;;;11.67;;
64957;SDS011;51486;50.232;19.208;2024-03-06T11:56:07;22.73;;;9.67;;
64957;SDS011;51486;50.232;19.208;2024-03-06T11:58:33;21.30;;;11.20;;
64957;SDS011;51486;50.232;19.208;2024-03-06T12:00:59;27.47;;;11.17;;
64957;SDS011;51486;50.232;19.208;2024-03-06T12:03:26;23.43;;;11.27;;
64957;SDS011;51486;50.232;19.208;2024-03-06T12:05:52;24.00;;;9.50;;
64957;SDS011;51486;50.232;19.208;2024-03-06T12:08:18;20.80;;;9.23;;
64957;SDS011;51486;50.232;19.208;2024-03-06T12:10:46;22.20;;;10.63;;
64957;SDS011;51486;50.232;19.208;2024-03-06T12:13:15;20.43;;;8.50;;
64957;SDS011;51486;50.232;19.208;2024-03-06T12:15:44;15.37;;;8.23;;
64957;SDS011;51486;50.232;19.208;2024-03-06T12:18:10;20.87;;;9.87;;
64957;SDS011;51486;50.232;19.208;2024-03-06T12:20:40;31.87;;;8.77;;
64957;SDS011;51486;50.232;19.208;2024-03-06T12:23:20;16.33;;;8.40;;
64957;SDS011;51486;50.232;19.208;2024-03-06T12:26:01;17.17;;;7.57;;
64957;SDS011;51486;50.232;19.208;2024-03-06T12:28:31;18.73;;;8.70;;
64957;SDS011;51486;50.232;19.208;2024-03-06T12:30:57;18.07;;;9.30;;
64957;SDS011;51486;50.232;19.208;2024-03-06T12:33:26;23.43;;;10.17;;
64957;SDS011;51486;50.232;19.208;2024-03-06T12:36:04;21.77;;;9.87;;
64957;SDS011;51486;50.232;19.208;2024-03-06T12:38:31;21.27;;;8.57;;
64957;SDS011;51486;50.232;19.208;2024-03-06T12:40:57;19.47;;;9.23;;
64957;SDS011;51486;50.232;19.208;2024-03-06T12:43:25;28.27;;;11.30;;
64957;SDS011;51486;50.232;19.208;2024-03-06T12:45:50;24.20;;;9.73;;
64957;SDS011;51486;50.232;19.208;2024-03-06T12:48:19;26.87;;;11.07;;
64957;SDS011;51486;50.232;19.208;2024-03-06T12:50:48;22.70;;;10.50;;
64957;SDS011;51486;50.232;19.208;2024-03-06T12:53:20;24.70;;;10.10;;
64957;SDS011;51486;50.232;19.208;2024-03-06T12:55:46;22.97;;;8.80;;
64957;SDS011;51486;50.232;19.208;2024-03-06T12:58:13;26.23;;;10.87;;
64957;SDS011;51486;50.232;19.208;2024-03-06T13:00:39;23.90;;;10.07;;
64957;SDS011;51486;50.232;19.208;2024-03-06T13:03:05;18.83;;;8.67;;
64957;SDS011;51486;50.232;19.208;2024-03-06T13:05:30;21.97;;;10.20;;
64957;SDS011;51486;50.232;19.208;2024-03-06T13:07:56;20.97;;;8.87;;
64957;SDS011;51486;50.232;19.208;2024-03-06T13:10:22;16.63;;;9.47;;
64957;SDS011;51486;50.232;19.208;2024-03-06T13:12:47;20.57;;;9.70;;
64957;SDS011;51486;50.232;19.208;2024-03-06T13:15:13;23.37;;;9.43;;
64957;SDS011;51486;50.232;19.208;2024-03-06T13:17:39;20.43;;;10.07;;
64957;SDS011;51486;50.232;19.208;2024-03-06T13:20:07;18.77;;;8.87;;
64957;SDS011;51486;50.232;19.208;2024-03-06T13:22:42;23.13;;;10.03;;
64957;SDS011;51486;50.232;19.208;2024-03-06T13:25:09;23.27;;;10.07;;
64957;SDS011;51486;50.232;19.208;2024-03-06T13:27:34;20.33;;;9.73;;
64957;SDS011;51486;50.232;19.208;2024-03-06T13:30:00;27.57;;;10.70;;
64957;SDS011;51486;50.232;19.208;2024-03-06T13:32:25;23.77;;;10.80;;
64957;SDS011;51486;50.232;19.208;2024-03-06T13:34:51;22.50;;;10.47;;
64957;SDS011;51486;50.232;19.208;2024-03-06T13:37:17;20.80;;;10.07;;
64957;SDS011;51486;50.232;19.208;2024-03-06T13:39:43;25.43;;;10.83;;
64957;SDS011;51486;50.232;19.208;2024-03-06T13:42:09;20.60;;;9.60;;
64957;SDS011;51486;50.232;19.208;2024-03-06T13:44:35;22.60;;;10.67;;
64957;SDS011;51486;50.232;19.208;2024-03-06T13:47:01;28.67;;;11.27;;
64957;SDS011;51486;50.232;19.208;2024-03-06T13:52:03;24.60;;;10.43;;
64957;SDS011;51486;50.232;19.208;2024-03-06T13:54:30;22.80;;;10.37;;
64957;SDS011;51486;50.232;19.208;2024-03-06T13:56:56;21.30;;;10.07;;
64957;SDS011;51486;50.232;19.208;2024-03-06T13:59:27;31.90;;;11.73;;
64957;SDS011;51486;50.232;19.208;2024-03-06T14:01:53;34.77;;;13.47;;
64957;SDS011;51486;50.232;19.208;2024-03-06T14:04:19;26.47;;;12.77;;
64957;SDS011;51486;50.232;19.208;2024-03-06T14:06:45;29.10;;;12.53;;
64957;SDS011;51486;50.232;19.208;2024-03-06T14:09:10;23.90;;;11.60;;
64957;SDS011;51486;50.232;19.208;2024-03-06T14:11:36;26.67;;;11.57;;
64957;SDS011;51486;50.232;19.208;2024-03-06T14:14:01;26.20;;;11.50;;
64957;SDS011;51486;50.232;19.208;2024-03-06T14:16:26;31.30;;;12.87;;
64957;SDS011;51486;50.232;19.208;2024-03-06T14:18:52;28.57;;;11.53;;
64957;SDS011;51486;50.232;19.208;2024-03-06T14:21:18;27.10;;;11.67;;
64957;SDS011;51486;50.232;19.208;2024-03-06T14:23:44;26.57;;;11.80;;
64957;SDS011;51486;50.232;19.208;2024-03-06T14:26:09;26.73;;;11.47;;
64957;SDS011;51486;50.232;19.208;2024-03-06T14:28:34;25.27;;;11.53;;